createdAt,value
2022-09-14T00:00:34.173Z,100.00
2022-09-14T00:03:04.213Z,99.99
2022-09-14T00:05:37.507Z,100.00
2022-09-14T00:08:07.573Z,99.73
2022-09-14T00:10:42.388Z,100.00
2022-09-14T00:13:13.389Z,99.82
2022-09-14T00:15:47.904Z,100.00
2022-09-14T00:18:17.826Z,100.00
2022-09-14T00:20:48.105Z,100.00
2022-09-14T00:23:18.042Z,100.00
2022-09-14T00:25:48.189Z,100.00
2022-09-14T00:28:18.176Z,100.00
2022-09-14T00:30:49.156Z,100.00
2022-09-14T00:33:19.201Z,100.00
2022-09-14T00:35:49.511Z,100.00
2022-09-14T00:38:19.635Z,100.00
2022-09-14T00:41:02.447Z,100.00
2022-09-14T00:43:32.718Z,100.00
2022-09-14T00:46:04.296Z,100.00
2022-09-14T00:48:34.670Z,100.00
2022-09-14T00:51:04.906Z,100.00
2022-09-14T00:53:35.029Z,100.00
2022-09-14T00:56:05.193Z,100.00
2022-09-14T00:58:35.601Z,100.00
2022-09-14T01:01:05.709Z,100.00
2022-09-14T01:03:36.113Z,100.00
2022-09-14T01:06:18.446Z,100.00
2022-09-14T01:09:03.636Z,100.00
2022-09-14T01:11:51.630Z,100.00
2022-09-14T01:14:48.689Z,100.00
2022-09-14T01:17:37.837Z,100.00
2022-09-14T01:20:28.541Z,100.00
2022-09-14T01:23:15.814Z,100.00
2022-09-14T01:26:20.183Z,100.00
2022-09-14T01:29:04.844Z,100.00
2022-09-14T01:31:48.672Z,100.00
2022-09-14T01:34:38.942Z,100.00
2022-09-14T01:37:36.002Z,100.00
2022-09-14T01:40:36.580Z,100.00
2022-09-14T01:43:29.665Z,100.00
2022-09-14T01:46:10.923Z,100.00
2022-09-14T01:48:58.569Z,100.00
2022-09-14T01:51:37.769Z,100.00
2022-09-14T01:54:27.685Z,100.00
2022-09-14T01:57:22.359Z,100.00
2022-09-14T01:59:57.229Z,100.00
2022-09-14T02:02:36.270Z,100.00
2022-09-14T02:05:09.749Z,100.00
2022-09-14T02:07:40.542Z,100.00
2022-09-14T02:10:14.906Z,100.00
2022-09-14T02:12:45.809Z,100.00
2022-09-14T02:15:17.423Z,100.00
2022-09-14T02:17:48.564Z,100.00
2022-09-14T02:20:42.136Z,100.00
2022-09-14T02:23:12.462Z,100.00
2022-09-14T02:25:43.834Z,100.00
2022-09-14T02:28:13.832Z,100.00
2022-09-14T02:31:02.488Z,100.00
2022-09-14T02:33:35.505Z,100.00
2022-09-14T02:36:17.126Z,100.00
2022-09-14T02:39:02.575Z,100.00
2022-09-14T02:42:16.905Z,100.00
2022-09-14T02:44:49.825Z,100.00
2022-09-14T02:47:36.675Z,99.81
2022-09-14T02:50:46.485Z,99.87
2022-09-14T02:53:33.196Z,99.71
2022-09-14T02:56:09.211Z,99.30
2022-09-14T02:58:44.703Z,98.23
2022-09-14T03:01:17.845Z,98.01
2022-09-14T03:03:48.686Z,97.58
2022-09-14T03:06:19.421Z,97.19
2022-09-14T03:08:50.050Z,96.61
2022-09-14T03:11:20.183Z,95.62
2022-09-14T03:13:51.129Z,95.55
2022-09-14T03:16:21.626Z,95.26
2022-09-14T03:18:51.833Z,95.28
2022-09-14T03:21:21.802Z,94.71
2022-09-14T03:23:53.893Z,95.33
2022-09-14T03:26:25.378Z,95.58
2022-09-14T03:29:00.657Z,94.52
2022-09-14T03:31:31.688Z,94.48
2022-09-14T03:34:03.485Z,93.40
2022-09-14T03:36:34.406Z,94.16
2022-09-14T03:39:04.363Z,92.71
2022-09-14T03:41:34.567Z,92.38
2022-09-14T03:44:04.648Z,91.96
2022-09-14T03:46:34.961Z,91.48
2022-09-14T03:49:05.181Z,90.72
2022-09-14T03:51:36.978Z,89.94
2022-09-14T03:54:07.863Z,89.43
2022-09-14T03:56:37.790Z,89.12
2022-09-14T03:59:11.767Z,88.46
2022-09-14T04:01:42.589Z,89.60
2022-09-14T04:04:12.794Z,88.80
2022-09-14T04:06:42.738Z,86.01
2022-09-14T04:09:13.233Z,87.00
2022-09-14T04:11:43.374Z,85.51
2022-09-14T04:14:14.762Z,86.02
2022-09-14T04:16:46.303Z,86.38
2022-09-14T04:19:16.425Z,84.99
2022-09-14T04:21:47.422Z,85.12
2022-09-14T04:24:18.756Z,83.66
2022-09-14T04:26:49.471Z,84.70
2022-09-14T04:29:19.559Z,87.77
2022-09-14T04:31:55.575Z,86.20
2022-09-14T04:34:27.721Z,86.47
2022-09-14T04:36:58.266Z,86.52
2022-09-14T04:39:49.947Z,85.92
2022-09-14T04:42:20.251Z,85.76
2022-09-14T04:44:50.192Z,86.22
2022-09-14T04:47:20.683Z,84.58
2022-09-14T04:49:50.667Z,84.80
2022-09-14T04:52:20.940Z,84.18
2022-09-14T04:54:50.608Z,84.31
2022-09-14T04:57:20.739Z,82.49
2022-09-14T04:59:50.404Z,78.92
2022-09-14T05:02:20.286Z,79.27
2022-09-14T05:04:50.631Z,78.74
2022-09-14T05:07:20.430Z,77.79
2022-09-14T05:09:50.389Z,78.76
2022-09-14T05:12:20.297Z,79.86
2022-09-14T05:14:50.295Z,78.47
2022-09-14T05:17:26.166Z,79.37
2022-09-14T05:19:57.799Z,78.81
2022-09-14T05:22:27.618Z,78.26
2022-09-14T05:24:58.601Z,78.12
2022-09-14T05:27:28.319Z,76.90
2022-09-14T05:29:59.658Z,76.45
2022-09-14T05:32:36.755Z,75.47
2022-09-14T05:35:09.438Z,75.34
2022-09-14T05:37:39.920Z,76.07
2022-09-14T05:40:11.173Z,73.67
2022-09-14T05:42:45.399Z,73.99
2022-09-14T05:45:17.425Z,73.96
2022-09-14T05:47:47.191Z,73.06
2022-09-14T05:50:17.270Z,74.54
2022-09-14T05:52:47.420Z,71.34
2022-09-14T05:55:17.483Z,69.65
2022-09-14T05:57:51.738Z,68.92
2022-09-14T06:00:22.837Z,67.90
2022-09-14T06:02:54.612Z,66.17
2022-09-14T06:05:26.906Z,68.22
2022-09-14T06:08:15.231Z,69.51
2022-09-14T06:10:45.513Z,68.10
2022-09-14T06:13:15.506Z,67.32
2022-09-14T06:15:54.415Z,67.67
2022-09-14T06:18:40.618Z,68.15
2022-09-14T06:21:20.331Z,66.27
2022-09-14T06:23:51.654Z,66.62
2022-09-14T06:26:22.393Z,68.61
2022-09-14T06:28:52.374Z,66.31
2022-09-14T06:31:24.169Z,65.44
2022-09-14T06:33:55.175Z,62.46
2022-09-14T06:36:28.194Z,61.96
2022-09-14T06:39:00.291Z,62.06
2022-09-14T06:41:34.461Z,62.60
2022-09-14T06:44:09.032Z,63.00
2022-09-14T06:46:44.556Z,63.23
2022-09-14T06:49:32.488Z,63.66
2022-09-14T06:52:06.037Z,65.30
2022-09-14T06:54:42.383Z,65.47
2022-09-14T06:57:12.526Z,65.97
2022-09-14T06:59:43.668Z,65.56
2022-09-14T07:02:16.180Z,65.58
2022-09-14T07:04:46.703Z,65.26
2022-09-14T07:07:21.585Z,66.62
2022-09-14T07:09:52.798Z,67.32
2022-09-14T07:12:23.740Z,67.83
2022-09-14T07:14:53.731Z,67.28
2022-09-14T07:17:23.897Z,66.15
2022-09-14T07:19:54.046Z,66.99
2022-09-14T07:22:25.137Z,65.80
2022-09-14T07:24:55.301Z,66.06
2022-09-14T07:27:25.347Z,66.44
2022-09-14T07:29:55.846Z,67.95
2022-09-14T07:32:36.958Z,67.34
2022-09-14T07:35:07.476Z,67.52
2022-09-14T07:37:38.290Z,67.02
2022-09-14T07:40:09.078Z,66.98
2022-09-14T07:42:43.074Z,65.50
2022-09-14T07:45:13.645Z,65.43
2022-09-14T07:47:44.263Z,64.49
2022-09-14T07:50:26.113Z,64.56
2022-09-14T07:52:57.633Z,64.80
2022-09-14T07:55:30.743Z,65.56
2022-09-14T07:58:01.250Z,65.38
2022-09-14T08:00:31.450Z,66.27
2022-09-14T08:03:01.355Z,64.76
2022-09-14T08:05:31.275Z,65.88
2022-09-14T08:08:04.332Z,66.22
2022-09-14T08:10:37.777Z,65.76
2022-09-14T08:13:08.019Z,64.73
2022-09-14T08:15:43.500Z,65.75
2022-09-14T08:18:13.024Z,65.03
2022-09-14T08:20:45.182Z,65.82
2022-09-14T08:23:15.255Z,64.35
2022-09-14T08:25:45.336Z,64.46
2022-09-14T08:28:14.986Z,65.89
2022-09-14T08:30:46.443Z,65.12
2022-09-14T08:33:15.981Z,64.84
2022-09-14T08:35:57.691Z,64.41
2022-09-14T08:38:27.802Z,64.44
2022-09-14T08:40:58.417Z,64.74
2022-09-14T08:43:29.567Z,64.49
2022-09-14T08:46:07.755Z,65.15
2022-09-14T08:48:42.465Z,65.10
2022-09-14T08:51:14.082Z,65.64
2022-09-14T08:53:45.044Z,65.38
2022-09-14T08:56:26.901Z,64.44
2022-09-14T08:59:13.057Z,65.08
2022-09-14T09:02:02.445Z,66.68
2022-09-14T09:04:35.152Z,69.17
2022-09-14T09:07:30.864Z,68.12
2022-09-14T09:10:01.434Z,68.52
2022-09-14T09:12:53.837Z,68.41
2022-09-14T09:15:25.769Z,68.07
2022-09-14T09:18:13.354Z,67.11
2022-09-14T09:20:54.160Z,67.84
2022-09-14T09:23:48.957Z,68.50
2022-09-14T09:26:28.496Z,68.47
2022-09-14T09:29:33.286Z,66.36
2022-09-14T09:33:05.538Z,65.15
2022-09-14T09:35:55.335Z,65.30
2022-09-14T09:38:31.198Z,65.39
2022-09-14T09:41:08.961Z,64.82
2022-09-14T09:44:04.307Z,64.25
2022-09-14T09:46:36.724Z,64.88
2022-09-14T09:49:32.282Z,64.53
2022-09-14T09:52:28.476Z,64.77
2022-09-14T09:54:59.734Z,66.19
2022-09-14T09:57:38.327Z,67.84
2022-09-14T10:00:22.566Z,67.50
2022-09-14T10:02:54.152Z,67.18
2022-09-14T10:05:34.252Z,66.52
2022-09-14T10:08:11.595Z,67.14
2022-09-14T10:10:46.080Z,67.95
2022-09-14T10:13:38.759Z,67.15
2022-09-14T10:16:15.984Z,67.46
2022-09-14T10:18:51.402Z,66.47
2022-09-14T10:21:23.875Z,67.74
2022-09-14T10:24:17.543Z,68.39
2022-09-14T10:26:47.321Z,68.83
2022-09-14T10:29:31.124Z,69.01
2022-09-14T10:32:25.307Z,68.52
2022-09-14T10:34:55.864Z,68.52
2022-09-14T10:37:33.549Z,68.16
2022-09-14T10:40:17.485Z,67.53
2022-09-14T10:43:01.643Z,68.23
2022-09-14T10:45:43.126Z,69.19
2022-09-14T10:48:39.188Z,70.01
2022-09-14T10:51:09.491Z,71.38
2022-09-14T10:54:12.558Z,68.83
2022-09-14T10:57:06.748Z,70.69
2022-09-14T10:59:50.151Z,72.00
2022-09-14T11:02:41.044Z,72.66
2022-09-14T11:05:22.748Z,72.68
2022-09-14T11:08:07.926Z,72.86
2022-09-14T11:10:56.002Z,73.50
2022-09-14T11:13:34.850Z,72.57
2022-09-14T11:16:10.701Z,72.33
2022-09-14T11:19:27.105Z,70.72
2022-09-14T11:22:00.230Z,71.35
2022-09-14T11:24:52.405Z,73.11
2022-09-14T11:27:37.376Z,73.26
2022-09-14T11:30:25.518Z,72.94
2022-09-14T11:33:05.273Z,71.80
2022-09-14T11:35:47.876Z,70.38
2022-09-14T11:38:25.825Z,70.20
2022-09-14T11:41:04.720Z,69.45
2022-09-14T11:44:02.696Z,68.81
2022-09-14T11:46:51.548Z,69.44
2022-09-14T11:49:32.348Z,69.33
2022-09-14T11:52:10.195Z,68.51
2022-09-14T11:54:53.122Z,68.22
2022-09-14T11:57:28.036Z,68.00
2022-09-14T12:00:07.694Z,67.91
2022-09-14T12:02:39.247Z,67.92
2022-09-14T12:05:09.414Z,68.03
2022-09-14T12:07:44.920Z,67.90
2022-09-14T12:10:18.165Z,68.21
2022-09-14T12:12:49.924Z,68.56
2022-09-14T12:15:20.657Z,68.75
2022-09-14T12:17:51.670Z,69.39
2022-09-14T12:20:34.777Z,69.36
2022-09-14T12:23:40.557Z,68.84
2022-09-14T12:26:14.550Z,69.13
2022-09-14T12:28:50.995Z,70.00
2022-09-14T12:31:51.777Z,70.04
2022-09-14T12:34:25.915Z,70.63
2022-09-14T12:36:59.275Z,70.34
2022-09-14T12:39:37.506Z,69.53
2022-09-14T12:42:30.320Z,71.26
2022-09-14T12:45:20.349Z,71.45
2022-09-14T12:47:53.701Z,71.96
2022-09-14T12:50:24.596Z,72.69
2022-09-14T12:53:16.226Z,71.72
2022-09-14T12:56:01.105Z,72.56
2022-09-14T12:59:06.575Z,72.22
2022-09-14T13:02:14.463Z,72.83
2022-09-14T13:04:46.900Z,73.00
2022-09-14T13:07:21.683Z,73.52
2022-09-14T13:09:55.153Z,73.16
2022-09-14T13:12:46.275Z,74.78
2022-09-14T13:15:38.130Z,75.74
2022-09-14T13:18:20.369Z,75.72
2022-09-14T13:20:55.536Z,76.70
2022-09-14T13:23:43.539Z,76.00
2022-09-14T13:26:25.790Z,77.23
2022-09-14T13:28:57.410Z,78.84
2022-09-14T13:31:39.338Z,77.88
2022-09-14T13:34:29.414Z,77.62
2022-09-14T13:37:01.477Z,78.30
2022-09-14T13:39:37.531Z,78.32
2022-09-14T13:42:08.326Z,78.11
2022-09-14T13:44:51.190Z,78.17
2022-09-14T13:47:32.657Z,78.87
2022-09-14T13:50:04.856Z,79.22
2022-09-14T13:53:03.069Z,80.50
2022-09-14T13:55:36.691Z,80.06
2022-09-14T13:58:20.922Z,80.74
2022-09-14T14:00:57.152Z,81.00
2022-09-14T14:03:37.777Z,81.68
2022-09-14T14:06:41.693Z,81.66
2022-09-14T14:09:12.942Z,82.01
2022-09-14T14:11:53.311Z,82.36
2022-09-14T14:14:30.931Z,82.90
2022-09-14T14:17:32.175Z,83.59
2022-09-14T14:20:26.169Z,83.02
2022-09-14T14:23:09.170Z,83.38
2022-09-14T14:25:45.984Z,84.62
2022-09-14T14:28:31.832Z,83.60
2022-09-14T14:31:08.970Z,84.23
2022-09-14T14:33:47.672Z,84.57
2022-09-14T14:36:17.762Z,84.39
2022-09-14T14:38:49.478Z,85.29
2022-09-14T14:41:23.323Z,85.56
2022-09-14T14:44:22.960Z,85.46
2022-09-14T14:47:15.951Z,87.03
2022-09-14T14:50:16.324Z,87.75
2022-09-14T14:53:08.584Z,87.75
2022-09-14T14:56:01.958Z,88.93
2022-09-14T14:58:58.888Z,88.93
2022-09-14T15:01:53.549Z,88.40
2022-09-14T15:04:44.623Z,88.59
2022-09-14T15:07:37.632Z,88.71
2022-09-14T15:10:32.675Z,89.11
2022-09-14T15:13:23.596Z,89.36
2022-09-14T15:16:15.336Z,89.41
2022-09-14T15:19:05.648Z,89.03
2022-09-14T15:22:01.037Z,89.92
2022-09-14T15:24:52.007Z,89.66
2022-09-14T15:27:42.895Z,89.19
2022-09-14T15:30:14.956Z,89.14
2022-09-14T15:33:04.230Z,88.61
2022-09-14T15:35:59.640Z,88.48
2022-09-14T15:38:49.768Z,87.99
2022-09-14T15:41:41.125Z,88.55
2022-09-14T15:44:32.316Z,88.05
2022-09-14T15:47:22.730Z,88.20
2022-09-14T15:50:13.316Z,88.60
2022-09-14T15:53:03.392Z,88.33
2022-09-14T15:55:54.434Z,88.64
2022-09-14T15:58:48.126Z,89.78
2022-09-14T16:01:38.615Z,90.02
2022-09-14T16:04:29.845Z,90.67
2022-09-14T16:07:00.892Z,91.08
2022-09-14T16:09:30.775Z,91.68
2022-09-14T16:12:01.982Z,91.91
2022-09-14T16:14:32.328Z,91.83
2022-09-14T16:17:02.933Z,91.23
2022-09-14T16:19:33.526Z,91.51
2022-09-14T16:22:03.325Z,91.76
2022-09-14T16:24:33.722Z,92.51
2022-09-14T16:27:03.760Z,92.77
2022-09-14T16:29:33.807Z,92.66
2022-09-14T16:32:03.531Z,92.17
2022-09-14T16:34:34.281Z,92.13
2022-09-14T16:37:04.019Z,91.56
2022-09-14T16:39:36.305Z,92.24
2022-09-14T16:42:06.542Z,92.16
2022-09-14T16:44:36.511Z,93.10
2022-09-14T16:47:07.396Z,93.13
2022-09-14T16:49:39.358Z,92.56
2022-09-14T16:52:09.816Z,92.02
2022-09-14T16:54:40.885Z,91.58
2022-09-14T16:57:11.292Z,91.63
2022-09-14T16:59:41.550Z,91.87
2022-09-14T17:02:14.339Z,91.74
2022-09-14T17:04:44.748Z,91.90
2022-09-14T17:07:18.030Z,91.45
2022-09-14T17:09:47.940Z,91.34
2022-09-14T17:12:18.217Z,91.55
2022-09-14T17:14:49.129Z,91.18
2022-09-14T17:17:19.195Z,91.06
2022-09-14T17:19:49.249Z,91.56
2022-09-14T17:22:19.339Z,91.60
2022-09-14T17:24:50.123Z,92.35
2022-09-14T17:27:21.430Z,93.22
2022-09-14T17:29:52.439Z,94.19
2022-09-14T17:32:22.411Z,95.32
2022-09-14T17:34:53.605Z,96.17
2022-09-14T17:37:24.922Z,97.18
2022-09-14T17:39:55.052Z,97.10
2022-09-14T17:42:25.150Z,97.43
2022-09-14T17:44:55.437Z,98.35
2022-09-14T17:47:27.130Z,97.56
2022-09-14T17:49:57.065Z,98.50
2022-09-14T17:52:26.833Z,98.76
2022-09-14T17:54:57.458Z,100.00
2022-09-14T17:57:27.304Z,100.00
2022-09-14T17:59:57.194Z,99.67
2022-09-14T18:02:27.287Z,99.40
2022-09-14T18:04:57.115Z,99.34
2022-09-14T18:07:27.685Z,99.77
2022-09-14T18:09:57.841Z,99.26
2022-09-14T18:12:28.917Z,100.00
2022-09-14T18:14:58.672Z,100.00
2022-09-14T18:17:29.426Z,100.00
2022-09-14T18:20:00.056Z,100.00
2022-09-14T18:22:31.756Z,100.00
2022-09-14T18:25:01.629Z,100.00
2022-09-14T18:27:32.517Z,100.00
2022-09-14T18:30:04.869Z,100.00
2022-09-14T18:32:35.281Z,100.00
2022-09-14T18:35:06.570Z,100.00
2022-09-14T18:37:36.875Z,100.00
2022-09-14T18:40:07.125Z,100.00
2022-09-14T18:42:38.018Z,100.00
2022-09-14T18:45:08.445Z,100.00
2022-09-14T18:47:38.256Z,100.00
2022-09-14T18:50:10.004Z,100.00
2022-09-14T18:52:39.778Z,100.00
2022-09-14T18:55:10.252Z,100.00
2022-09-14T18:57:41.081Z,100.00
2022-09-14T19:00:15.121Z,100.00
2022-09-14T19:02:55.577Z,100.00
2022-09-14T19:05:26.988Z,100.00
2022-09-14T19:07:56.982Z,100.00
2022-09-14T19:10:28.154Z,100.00
2022-09-14T19:12:58.122Z,100.00
2022-09-14T19:15:30.833Z,100.00
2022-09-14T19:18:03.346Z,100.00
2022-09-14T19:20:55.083Z,100.00
2022-09-14T19:23:24.458Z,100.00
2022-09-14T19:25:54.244Z,100.00
2022-09-14T19:28:24.312Z,100.00
2022-09-14T19:30:54.184Z,100.00
2022-09-14T19:33:25.349Z,100.00
2022-09-14T19:35:55.134Z,100.00
2022-09-14T19:38:25.957Z,100.00
2022-09-14T19:40:55.757Z,100.00
2022-09-14T19:43:25.638Z,100.00
2022-09-14T19:45:56.373Z,100.00
2022-09-14T19:48:26.665Z,100.00
2022-09-14T19:51:01.473Z,100.00
2022-09-14T19:53:33.075Z,100.00
2022-09-14T19:56:07.361Z,100.00
2022-09-14T19:58:42.334Z,100.00
2022-09-14T20:01:12.926Z,100.00
2022-09-14T20:03:43.209Z,100.00
2022-09-14T20:06:21.037Z,100.00
2022-09-14T20:08:53.489Z,100.00
2022-09-14T20:11:25.141Z,100.00
2022-09-14T20:13:57.163Z,100.00
2022-09-14T20:16:35.961Z,100.00
2022-09-14T20:19:12.158Z,100.00
2022-09-14T20:21:43.367Z,100.00
2022-09-14T20:24:19.534Z,100.00
2022-09-14T20:26:51.863Z,100.00
2022-09-14T20:29:24.382Z,100.00
2022-09-14T20:31:54.943Z,100.00
2022-09-14T20:34:25.157Z,100.00
2022-09-14T20:36:55.920Z,100.00
2022-09-14T20:39:26.438Z,100.00
2022-09-14T20:41:56.504Z,100.00
2022-09-14T20:44:27.913Z,100.00
2022-09-14T20:46:58.171Z,100.00
2022-09-14T20:49:28.215Z,100.00
2022-09-14T20:51:58.787Z,100.00
2022-09-14T20:54:30.002Z,100.00
2022-09-14T20:57:04.082Z,100.00
2022-09-14T20:59:36.071Z,100.00
2022-09-14T21:02:06.004Z,100.00
2022-09-14T21:04:37.848Z,100.00
2022-09-14T21:07:07.641Z,100.00
2022-09-14T21:09:38.259Z,100.00
2022-09-14T21:12:12.848Z,100.00
2022-09-14T21:14:44.674Z,100.00
2022-09-14T21:17:14.374Z,100.00
2022-09-14T21:19:44.260Z,100.00
2022-09-14T21:22:15.078Z,100.00
2022-09-14T21:24:44.957Z,100.00
2022-09-14T21:27:15.055Z,100.00
2022-09-14T21:29:44.945Z,100.00
2022-09-14T21:32:15.856Z,100.00
2022-09-14T21:34:45.816Z,100.00
2022-09-14T21:37:15.616Z,100.00
2022-09-14T21:39:45.550Z,100.00
2022-09-14T21:42:15.393Z,100.00
2022-09-14T21:44:45.234Z,100.00
2022-09-14T21:47:15.752Z,100.00
2022-09-14T21:49:45.589Z,100.00
2022-09-14T21:52:16.039Z,99.73
2022-09-14T21:54:47.110Z,99.97
2022-09-14T21:57:17.910Z,100.00
2022-09-14T21:59:47.952Z,100.00
2022-09-14T22:02:18.756Z,100.00
2022-09-14T22:04:49.103Z,100.00
2022-09-14T22:07:19.973Z,100.00
2022-09-14T22:09:49.866Z,100.00
2022-09-14T22:12:21.631Z,100.00
2022-09-14T22:14:51.792Z,100.00
2022-09-14T22:17:22.195Z,99.82
2022-09-14T22:19:56.278Z,100.00
2022-09-14T22:22:27.250Z,99.54
2022-09-14T22:24:57.068Z,100.00
2022-09-14T22:27:26.942Z,99.87
2022-09-14T22:29:57.148Z,99.64
2022-09-14T22:32:26.795Z,99.70
2022-09-14T22:34:57.721Z,98.68
2022-09-14T22:37:27.380Z,98.83
2022-09-14T22:39:57.430Z,99.51
2022-09-14T22:42:29.279Z,99.36
2022-09-14T22:44:59.975Z,99.43
2022-09-14T22:47:31.341Z,99.20
2022-09-14T22:50:01.149Z,99.30
2022-09-14T22:52:30.701Z,98.98
2022-09-14T22:55:01.427Z,99.44
2022-09-14T22:57:31.333Z,98.88
2022-09-14T23:00:01.097Z,99.37
2022-09-14T23:02:30.976Z,98.94
2022-09-14T23:05:00.987Z,99.00
2022-09-14T23:07:33.420Z,98.59
2022-09-14T23:10:04.200Z,98.38
2022-09-14T23:12:34.694Z,98.43
2022-09-14T23:15:05.336Z,97.70
2022-09-14T23:17:35.425Z,97.61
2022-09-14T23:20:06.732Z,98.21
2022-09-14T23:22:36.524Z,97.39
2022-09-14T23:25:07.153Z,97.63
2022-09-14T23:27:36.968Z,97.52
2022-09-14T23:30:08.364Z,97.38
2022-09-14T23:32:38.283Z,97.63
2022-09-14T23:35:09.483Z,96.88
2022-09-14T23:37:40.004Z,97.44
2022-09-14T23:40:11.196Z,97.10
2022-09-14T23:42:41.240Z,97.24
2022-09-14T23:45:12.306Z,97.18
2022-09-14T23:47:42.195Z,97.29
2022-09-14T23:50:12.903Z,96.99
2022-09-14T23:52:42.686Z,97.15
2022-09-14T23:55:12.592Z,96.87
2022-09-14T23:57:43.236Z,96.88
